sensor_id;sensor_type;location;lat;lon;timestamp;pressure;altitude;pressure_sealevel;temperature;humidity
5062;BME280;2351;50.812;12.872;2023-03-16T00:02:08;98407.13;;;-3.18;98.34
5062;BME280;2351;50.812;12.872;2023-03-16T00:04:40;98412.31;;;-3.19;98.92
5062;BME280;2351;50.812;12.872;2023-03-16T00:07:12;98408.88;;;-3.20;98.96
5062;BME280;2351;50.812;12.872;2023-03-16T00:09:44;98411.53;;;-3.21;99.03
5062;BME280;2351;50.812;12.872;2023-03-16T00:12:17;98409.72;;;-3.19;99.12
5062;BME280;2351;50.812;12.872;2023-03-16T00:14:49;98408.81;;;-3.16;98.86
5062;BME280;2351;50.812;12.872;2023-03-16T00:17:22;98411.53;;;-3.21;99.34
5062;BME280;2351;50.812;12.872;2023-03-16T00:20:14;98402.94;;;-3.23;99.27
5062;BME280;2351;50.812;12.872;2023-03-16T00:22:45;98399.53;;;-3.25;99.41
5062;BME280;2351;50.812;12.872;2023-03-16T00:25:17;98406.53;;;-3.30;99.50
5062;BME280;2351;50.812;12.872;2023-03-16T00:27:49;98407.50;;;-3.35;99.42
5062;BME280;2351;50.812;12.872;2023-03-16T00:30:21;98410.13;;;-3.38;99.56
5062;BME280;2351;50.812;12.872;2023-03-16T00:32:54;98412.00;;;-3.43;99.70
5062;BME280;2351;50.812;12.872;2023-03-16T00:35:26;98410.34;;;-3.47;99.35
5062;BME280;2351;50.812;12.872;2023-03-16T00:37:57;98412.06;;;-3.46;99.86
5062;BME280;2351;50.812;12.872;2023-03-16T00:40:29;98413.78;;;-3.45;100.00
5062;BME280;2351;50.812;12.872;2023-03-16T00:43:03;98417.19;;;-3.44;99.65
5062;BME280;2351;50.812;12.872;2023-03-16T00:45:34;98418.09;;;-3.45;100.00
5062;BME280;2351;50.812;12.872;2023-03-16T00:48:08;98425.84;;;-3.45;100.00
5062;BME280;2351;50.812;12.872;2023-03-16T00:50:40;98426.66;;;-3.43;100.00
5062;BME280;2351;50.812;12.872;2023-03-16T00:53:12;98424.06;;;-3.43;100.00
5062;BME280;2351;50.812;12.872;2023-03-16T00:55:44;98425.81;;;-3.44;100.00
5062;BME280;2351;50.812;12.872;2023-03-16T00:58:16;98431.06;;;-3.47;99.84
5062;BME280;2351;50.812;12.872;2023-03-16T01:00:47;98437.94;;;-3.46;100.00
5062;BME280;2351;50.812;12.872;2023-03-16T01:03:22;98430.25;;;-3.49;100.00
5062;BME280;2351;50.812;12.872;2023-03-16T01:05:53;98431.06;;;-3.47;100.00
5062;BME280;2351;50.812;12.872;2023-03-16T01:08:29;98432.84;;;-3.49;100.00
5062;BME280;2351;50.812;12.872;2023-03-16T01:11:03;98436.31;;;-3.50;100.00
5062;BME280;2351;50.812;12.872;2023-03-16T01:13:35;98433.72;;;-3.52;100.00
5062;BME280;2351;50.812;12.872;2023-03-16T01:16:08;98434.53;;;-3.48;100.00
5062;BME280;2351;50.812;12.872;2023-03-16T01:18:41;98425.09;;;-3.51;99.92
5062;BME280;2351;50.812;12.872;2023-03-16T01:21:13;98434.63;;;-3.53;100.00
5062;BME280;2351;50.812;12.872;2023-03-16T01:23:45;98432.06;;;-3.54;100.00
5062;BME280;2351;50.812;12.872;2023-03-16T01:26:17;98427.78;;;-3.55;100.00
5062;BME280;2351;50.812;12.872;2023-03-16T01:28:49;98431.31;;;-3.59;100.00
5062;BME280;2351;50.812;12.872;2023-03-16T01:31:21;98433.97;;;-3.63;100.00
5062;BME280;2351;50.812;12.872;2023-03-16T01:33:54;98428.78;;;-3.63;100.00
5062;BME280;2351;50.812;12.872;2023-03-16T01:36:26;98430.53;;;-3.63;100.00
5062;BME280;2351;50.812;12.872;2023-03-16T01:38:58;98428.81;;;-3.64;100.00
5062;BME280;2351;50.812;12.872;2023-03-16T01:41:30;98428.88;;;-3.66;100.00
5062;BME280;2351;50.812;12.872;2023-03-16T01:44:02;98428.00;;;-3.65;100.00
5062;BME280;2351;50.812;12.872;2023-03-16T01:46:34;98426.34;;;-3.70;100.00
5062;BME280;2351;50.812;12.872;2023-03-16T01:49:11;98424.69;;;-3.73;100.00
5062;BME280;2351;50.812;12.872;2023-03-16T01:51:48;98429.94;;;-3.76;100.00
5062;BME280;2351;50.812;12.872;2023-03-16T01:54:25;98428.22;;;-3.77;100.00
5062;BME280;2351;50.812;12.872;2023-03-16T01:57:03;98428.28;;;-3.80;100.00
5062;BME280;2351;50.812;12.872;2023-03-16T01:59:38;98422.28;;;-3.82;100.00
5062;BME280;2351;50.812;12.872;2023-03-16T02:02:12;98426.63;;;-3.84;100.00
5062;BME280;2351;50.812;12.872;2023-03-16T02:04:49;98426.75;;;-3.89;100.00
5062;BME280;2351;50.812;12.872;2023-03-16T02:07:25;98426.78;;;-3.92;100.00
5062;BME280;2351;50.812;12.872;2023-03-16T02:09:59;98425.19;;;-3.98;100.00
5062;BME280;2351;50.812;12.872;2023-03-16T02:12:34;98420.06;;;-4.01;100.00
5062;BME280;2351;50.812;12.872;2023-03-16T02:15:07;98423.59;;;-4.05;100.00
5062;BME280;2351;50.812;12.872;2023-03-16T02:17:40;98420.19;;;-4.07;100.00
5062;BME280;2351;50.812;12.872;2023-03-16T02:20:24;98424.50;;;-4.07;100.00
5062;BME280;2351;50.812;12.872;2023-03-16T02:22:59;98423.72;;;-4.11;100.00
5062;BME280;2351;50.812;12.872;2023-03-16T02:25:38;98425.50;;;-4.15;100.00
5062;BME280;2351;50.812;12.872;2023-03-16T02:28:18;98422.97;;;-4.18;100.00
5062;BME280;2351;50.812;12.872;2023-03-16T02:30:54;98418.72;;;-4.20;100.00
5062;BME280;2351;50.812;12.872;2023-03-16T02:33:27;98423.94;;;-4.24;100.00
5062;BME280;2351;50.812;12.872;2023-03-16T02:36:00;98423.97;;;-4.25;100.00
5062;BME280;2351;50.812;12.872;2023-03-16T02:38:33;98420.59;;;-4.29;100.00
5062;BME280;2351;50.812;12.872;2023-03-16T02:41:09;98421.50;;;-4.31;100.00
5062;BME280;2351;50.812;12.872;2023-03-16T02:43:45;98425.00;;;-4.34;100.00
5062;BME280;2351;50.812;12.872;2023-03-16T02:46:21;98420.78;;;-4.38;100.00
5062;BME280;2351;50.812;12.872;2023-03-16T02:48:57;98421.69;;;-4.42;100.00
5062;BME280;2351;50.812;12.872;2023-03-16T02:51:32;98425.19;;;-4.45;100.00
5062;BME280;2351;50.812;12.872;2023-03-16T02:54:04;98426.06;;;-4.46;100.00
5062;BME280;2351;50.812;12.872;2023-03-16T02:56:35;98426.97;;;-4.48;100.00
5062;BME280;2351;50.812;12.872;2023-03-16T02:59:07;98426.13;;;-4.50;100.00
5062;BME280;2351;50.812;12.872;2023-03-16T03:01:40;98424.44;;;-4.51;100.00
5062;BME280;2351;50.812;12.872;2023-03-16T03:04:12;98422.75;;;-4.52;100.00
5062;BME280;2351;50.812;12.872;2023-03-16T03:06:43;98424.50;;;-4.55;100.00
5062;BME280;2351;50.812;12.872;2023-03-16T03:09:15;98432.28;;;-4.56;100.00
5062;BME280;2351;50.812;12.872;2023-03-16T03:11:48;98428.81;;;-4.55;100.00
5062;BME280;2351;50.812;12.872;2023-03-16T03:14:19;98428.81;;;-4.54;100.00
5062;BME280;2351;50.812;12.872;2023-03-16T03:16:53;98431.38;;;-4.54;100.00
5062;BME280;2351;50.812;12.872;2023-03-16T03:19:25;98425.38;;;-4.56;100.00
5062;BME280;2351;50.812;12.872;2023-03-16T03:21:56;98433.13;;;-4.56;100.00
5062;BME280;2351;50.812;12.872;2023-03-16T03:24:28;98436.59;;;-4.57;100.00
5062;BME280;2351;50.812;12.872;2023-03-16T03:27:01;98430.59;;;-4.60;100.00
5062;BME280;2351;50.812;12.872;2023-03-16T03:29:35;98428.94;;;-4.63;100.00
5062;BME280;2351;50.812;12.872;2023-03-16T03:32:08;98442.78;;;-4.67;100.00
5062;BME280;2351;50.812;12.872;2023-03-16T03:34:40;98439.41;;;-4.71;100.00
5062;BME280;2351;50.812;12.872;2023-03-16T03:37:12;98438.59;;;-4.74;100.00
5062;BME280;2351;50.812;12.872;2023-03-16T03:39:43;98439.50;;;-4.75;100.00
5062;BME280;2351;50.812;12.872;2023-03-16T03:42:15;98446.41;;;-4.79;100.00
5062;BME280;2351;50.812;12.872;2023-03-16T03:44:47;98444.75;;;-4.83;100.00
5062;BME280;2351;50.812;12.872;2023-03-16T03:47:20;98444.78;;;-4.85;100.00
5062;BME280;2351;50.812;12.872;2023-03-16T03:49:52;98454.34;;;-4.88;100.00
5062;BME280;2351;50.812;12.872;2023-03-16T03:52:24;98461.22;;;-4.89;100.00
5062;BME280;2351;50.812;12.872;2023-03-16T03:54:55;98454.34;;;-4.90;100.00
5062;BME280;2351;50.812;12.872;2023-03-16T03:57:27;98456.09;;;-4.92;100.00
5062;BME280;2351;50.812;12.872;2023-03-16T03:59:59;98446.66;;;-4.94;100.00
5062;BME280;2351;50.812;12.872;2023-03-16T04:02:32;98456.13;;;-4.95;100.00
5062;BME280;2351;50.812;12.872;2023-03-16T04:05:04;98451.84;;;-4.96;100.00
5062;BME280;2351;50.812;12.872;2023-03-16T04:07:36;98458.78;;;-4.98;100.00
5062;BME280;2351;50.812;12.872;2023-03-16T04:10:09;98458.78;;;-4.98;100.00
5062;BME280;2351;50.812;12.872;2023-03-16T04:12:41;98448.50;;;-5.01;100.00
5062;BME280;2351;50.812;12.872;2023-03-16T04:15:12;98451.09;;;-5.03;100.00
5062;BME280;2351;50.812;12.872;2023-03-16T04:17:45;98451.13;;;-5.04;100.00
5062;BME280;2351;50.812;12.872;2023-03-16T04:20:18;98449.41;;;-5.05;100.00
5062;BME280;2351;50.812;12.872;2023-03-16T04:22:50;98444.25;;;-5.05;100.00
5062;BME280;2351;50.812;12.872;2023-03-16T04:25:27;98446.84;;;-5.05;100.00
5062;BME280;2351;50.812;12.872;2023-03-16T04:27:59;98443.41;;;-5.07;100.00
5062;BME280;2351;50.812;12.872;2023-03-16T04:30:31;98440.78;;;-5.04;100.00
5062;BME280;2351;50.812;12.872;2023-03-16T04:33:05;98440.75;;;-5.03;100.00
5062;BME280;2351;50.812;12.872;2023-03-16T04:35:37;98441.66;;;-5.05;100.00
5062;BME280;2351;50.812;12.872;2023-03-16T04:38:09;98440.00;;;-5.09;100.00
5062;BME280;2351;50.812;12.872;2023-03-16T04:40:41;98440.03;;;-5.12;100.00
5062;BME280;2351;50.812;12.872;2023-03-16T04:43:13;98443.53;;;-5.15;100.00
5062;BME280;2351;50.812;12.872;2023-03-16T04:45:45;98442.75;;;-5.19;100.00
5062;BME280;2351;50.812;12.872;2023-03-16T04:48:18;98443.63;;;-5.20;100.00
5062;BME280;2351;50.812;12.872;2023-03-16T04:50:49;98440.19;;;-5.22;100.00
5062;BME280;2351;50.812;12.872;2023-03-16T04:53:21;98438.50;;;-5.23;100.00
5062;BME280;2351;50.812;12.872;2023-03-16T04:55:53;98438.50;;;-5.23;100.00
5062;BME280;2351;50.812;12.872;2023-03-16T04:58:25;98440.22;;;-5.25;100.00
5062;BME280;2351;50.812;12.872;2023-03-16T05:00:56;98437.66;;;-5.26;100.00
5062;BME280;2351;50.812;12.872;2023-03-16T05:03:30;98431.66;;;-5.29;100.00
5062;BME280;2351;50.812;12.872;2023-03-16T05:06:01;98430.81;;;-5.29;100.00
5062;BME280;2351;50.812;12.872;2023-03-16T05:08:34;98427.41;;;-5.31;100.00
5062;BME280;2351;50.812;12.872;2023-03-16T05:11:06;98436.03;;;-5.32;100.00
5062;BME280;2351;50.812;12.872;2023-03-16T05:13:38;98428.31;;;-5.35;100.00
5062;BME280;2351;50.812;12.872;2023-03-16T05:16:10;98437.81;;;-5.37;100.00
5062;BME280;2351;50.812;12.872;2023-03-16T05:18:43;98424.94;;;-5.39;100.00
5062;BME280;2351;50.812;12.872;2023-03-16T05:21:14;98428.44;;;-5.41;100.00
5062;BME280;2351;50.812;12.872;2023-03-16T05:23:46;98431.88;;;-5.42;100.00
5062;BME280;2351;50.812;12.872;2023-03-16T05:26:18;98437.91;;;-5.43;100.00
5062;BME280;2351;50.812;12.872;2023-03-16T05:28:50;98434.50;;;-5.46;100.00
5062;BME280;2351;50.812;12.872;2023-03-16T05:31:22;98440.53;;;-5.47;100.00
5062;BME280;2351;50.812;12.872;2023-03-16T05:33:57;98439.66;;;-5.46;100.00
5062;BME280;2351;50.812;12.872;2023-03-16T05:36:30;98442.25;;;-5.46;100.00
5062;BME280;2351;50.812;12.872;2023-03-16T05:39:02;98445.66;;;-5.43;100.00
5062;BME280;2351;50.812;12.872;2023-03-16T05:41:34;98445.31;;;-5.19;100.00
5062;BME280;2351;50.812;12.872;2023-03-16T05:44:06;98441.72;;;-4.54;100.00
5062;BME280;2351;50.812;12.872;2023-03-16T05:46:38;98438.47;;;-3.71;100.00
5062;BME280;2351;50.812;12.872;2023-03-16T05:49:11;98430.69;;;-2.91;100.00
5062;BME280;2351;50.812;12.872;2023-03-16T05:51:43;98434.13;;;-2.21;100.00
5062;BME280;2351;50.812;12.872;2023-03-16T05:54:15;98434.56;;;-1.43;100.00
5062;BME280;2351;50.812;12.872;2023-03-16T05:56:47;98429.75;;;-0.70;100.00
5062;BME280;2351;50.812;12.872;2023-03-16T05:59:18;98427.25;;;-0.21;100.00
5062;BME280;2351;50.812;12.872;2023-03-16T06:01:50;98428.16;;;0.51;100.00
5062;BME280;2351;50.812;12.872;2023-03-16T06:04:23;98420.41;;;1.17;100.00
5062;BME280;2351;50.812;12.872;2023-03-16T06:06:55;98422.50;;;1.73;100.00
5062;BME280;2351;50.812;12.872;2023-03-16T06:09:27;98425.78;;;2.18;100.00
5062;BME280;2351;50.812;12.872;2023-03-16T06:11:58;98423.63;;;2.47;100.00
5062;BME280;2351;50.812;12.872;2023-03-16T06:14:30;98427.31;;;2.62;100.00
5062;BME280;2351;50.812;12.872;2023-03-16T06:17:02;98429.22;;;2.77;100.00
5062;BME280;2351;50.812;12.872;2023-03-16T06:19:35;98431.56;;;3.20;100.00
5062;BME280;2351;50.812;12.872;2023-03-16T06:22:07;98434.06;;;3.76;100.00
5062;BME280;2351;50.812;12.872;2023-03-16T06:24:39;98428.84;;;4.27;100.00
5062;BME280;2351;50.812;12.872;2023-03-16T06:27:11;98421.22;;;5.04;100.00
5062;BME280;2351;50.812;12.872;2023-03-16T06:29:43;98425.25;;;5.87;100.00
5062;BME280;2351;50.812;12.872;2023-03-16T06:32:14;98418.84;;;6.65;100.00
5062;BME280;2351;50.812;12.872;2023-03-16T06:34:47;98429.81;;;7.28;100.00
5062;BME280;2351;50.812;12.872;2023-03-16T06:37:19;98423.88;;;7.92;100.00
5062;BME280;2351;50.812;12.872;2023-03-16T06:39:51;98414.81;;;8.48;100.00
5062;BME280;2351;50.812;12.872;2023-03-16T06:42:23;98413.59;;;9.15;100.00
5062;BME280;2351;50.812;12.872;2023-03-16T06:44:54;98419.50;;;9.90;100.00
5062;BME280;2351;50.812;12.872;2023-03-16T06:47:26;98416.28;;;10.68;100.00
5062;BME280;2351;50.812;12.872;2023-03-16T06:49:59;98418.84;;;11.02;99.07
5062;BME280;2351;50.812;12.872;2023-03-16T06:52:31;98430.25;;;11.25;99.20
5062;BME280;2351;50.812;12.872;2023-03-16T06:55:03;98423.47;;;11.65;98.31
5062;BME280;2351;50.812;12.872;2023-03-16T06:57:35;98415.88;;;11.93;94.29
5062;BME280;2351;50.812;12.872;2023-03-16T07:00:12;98417.28;;;11.97;88.94
5062;BME280;2351;50.812;12.872;2023-03-16T07:02:45;98413.22;;;12.14;86.30
5062;BME280;2351;50.812;12.872;2023-03-16T07:05:18;98417.97;;;12.11;78.93
5062;BME280;2351;50.812;12.872;2023-03-16T07:07:49;98417.22;;;11.34;75.83
5062;BME280;2351;50.812;12.872;2023-03-16T07:10:22;98414.34;;;10.59;76.25
5062;BME280;2351;50.812;12.872;2023-03-16T07:12:54;98429.78;;;10.06;77.87
5062;BME280;2351;50.812;12.872;2023-03-16T07:15:26;98427.88;;;9.73;77.53
5062;BME280;2351;50.812;12.872;2023-03-16T07:17:58;98432.16;;;9.62;77.34
5062;BME280;2351;50.812;12.872;2023-03-16T07:20:31;98430.53;;;9.84;77.79
5062;BME280;2351;50.812;12.872;2023-03-16T07:23:04;98429.75;;;10.42;75.70
5062;BME280;2351;50.812;12.872;2023-03-16T07:25:36;98426.75;;;11.25;72.27
5062;BME280;2351;50.812;12.872;2023-03-16T07:28:07;98416.59;;;12.16;67.72
5062;BME280;2351;50.812;12.872;2023-03-16T07:30:39;98417.72;;;12.86;67.07
5062;BME280;2351;50.812;12.872;2023-03-16T07:33:11;98423.31;;;12.42;62.29
5062;BME280;2351;50.812;12.872;2023-03-16T07:35:44;98432.94;;;12.43;59.89
5062;BME280;2351;50.812;12.872;2023-03-16T07:38:16;98417.56;;;12.68;62.08
5062;BME280;2351;50.812;12.872;2023-03-16T07:40:48;98420.84;;;12.91;61.65
5062;BME280;2351;50.812;12.872;2023-03-16T07:43:21;98411.94;;;13.31;60.38
5062;BME280;2351;50.812;12.872;2023-03-16T07:45:53;98411.13;;;13.90;58.85
5062;BME280;2351;50.812;12.872;2023-03-16T07:48:25;98413.66;;;13.71;51.19
5062;BME280;2351;50.812;12.872;2023-03-16T07:50:58;98408.09;;;13.45;52.00
5062;BME280;2351;50.812;12.872;2023-03-16T07:53:29;98413.13;;;12.88;52.62
5062;BME280;2351;50.812;12.872;2023-03-16T07:56:01;98411.84;;;12.41;53.49
5062;BME280;2351;50.812;12.872;2023-03-16T07:58:33;98420.75;;;12.09;52.81
5062;BME280;2351;50.812;12.872;2023-03-16T08:01:05;98416.94;;;11.69;51.88
5062;BME280;2351;50.812;12.872;2023-03-16T08:03:37;98426.22;;;11.42;51.40
5062;BME280;2351;50.812;12.872;2023-03-16T08:06:10;98423.66;;;11.52;51.36
5062;BME280;2351;50.812;12.872;2023-03-16T08:08:42;98419.25;;;10.97;45.49
5062;BME280;2351;50.812;12.872;2023-03-16T08:11:14;98411.09;;;11.54;43.38
5062;BME280;2351;50.812;12.872;2023-03-16T08:13:52;98413.19;;;11.72;46.17
5062;BME280;2351;50.812;12.872;2023-03-16T08:16:26;98409.78;;;12.45;46.41
5062;BME280;2351;50.812;12.872;2023-03-16T08:18:57;98419.00;;;12.91;45.62
5062;BME280;2351;50.812;12.872;2023-03-16T08:21:31;98417.31;;;13.41;44.32
5062;BME280;2351;50.812;12.872;2023-03-16T08:24:04;98416.50;;;13.60;42.61
5062;BME280;2351;50.812;12.872;2023-03-16T08:26:35;98418.44;;;13.48;41.98
5062;BME280;2351;50.812;12.872;2023-03-16T08:29:07;98415.00;;;13.07;40.89
5062;BME280;2351;50.812;12.872;2023-03-16T08:31:39;98419.16;;;13.00;39.60
5062;BME280;2351;50.812;12.872;2023-03-16T08:34:12;98419.38;;;12.77;41.01
5062;BME280;2351;50.812;12.872;2023-03-16T08:36:46;98415.38;;;12.92;41.83
5062;BME280;2351;50.812;12.872;2023-03-16T08:39:18;98419.09;;;13.31;41.08
5062;BME280;2351;50.812;12.872;2023-03-16T08:41:50;98412.69;;;13.53;40.59
5062;BME280;2351;50.812;12.872;2023-03-16T08:44:23;98426.06;;;13.12;39.53
5062;BME280;2351;50.812;12.872;2023-03-16T08:46:55;98428.25;;;12.56;39.09
5062;BME280;2351;50.812;12.872;2023-03-16T08:49:28;98438.41;;;12.20;38.57
5062;BME280;2351;50.812;12.872;2023-03-16T08:52:01;98440.66;;;12.03;38.22
5062;BME280;2351;50.812;12.872;2023-03-16T08:54:33;98437.81;;;12.16;38.22
5062;BME280;2351;50.812;12.872;2023-03-16T08:57:04;98442.25;;;12.37;38.00
5062;BME280;2351;50.812;12.872;2023-03-16T08:59:36;98434.59;;;12.13;34.55
5062;BME280;2351;50.812;12.872;2023-03-16T09:02:11;98448.22;;;11.10;35.71
5062;BME280;2351;50.812;12.872;2023-03-16T09:04:43;98453.81;;;10.03;36.73
5062;BME280;2351;50.812;12.872;2023-03-16T09:07:18;98463.06;;;9.00;37.31
5062;BME280;2351;50.812;12.872;2023-03-16T09:09:49;98456.16;;;8.22;38.40
5062;BME280;2351;50.812;12.872;2023-03-16T09:12:22;98460.25;;;8.00;39.61
5062;BME280;2351;50.812;12.872;2023-03-16T09:14:53;98465.53;;;7.60;39.67
5062;BME280;2351;50.812;12.872;2023-03-16T09:17:25;98460.84;;;7.23;40.42
5062;BME280;2351;50.812;12.872;2023-03-16T09:19:57;98465.53;;;6.90;41.55
5062;BME280;2351;50.812;12.872;2023-03-16T09:22:30;98460.16;;;6.92;43.33
5062;BME280;2351;50.812;12.872;2023-03-16T09:25:03;98461.09;;;7.33;45.72
5062;BME280;2351;50.812;12.872;2023-03-16T09:27:35;98453.78;;;7.78;45.49
5062;BME280;2351;50.812;12.872;2023-03-16T09:30:09;98451.69;;;8.09;41.31
5062;BME280;2351;50.812;12.872;2023-03-16T09:32:41;98459.16;;;7.49;43.69
5062;BME280;2351;50.812;12.872;2023-03-16T09:35:13;98454.44;;;8.08;47.27
5062;BME280;2351;50.812;12.872;2023-03-16T09:37:46;98448.53;;;8.69;47.31
5062;BME280;2351;50.812;12.872;2023-03-16T09:40:21;98456.00;;;9.25;46.64
5062;BME280;2351;50.812;12.872;2023-03-16T09:43:08;98443.16;;;9.21;45.01
5062;BME280;2351;50.812;12.872;2023-03-16T09:45:48;98454.16;;;9.14;41.86
5062;BME280;2351;50.812;12.872;2023-03-16T09:48:25;98453.09;;;8.67;43.10
5062;BME280;2351;50.812;12.872;2023-03-16T09:50:59;98445.59;;;8.48;43.75
5062;BME280;2351;50.812;12.872;2023-03-16T09:53:36;98455.72;;;8.67;44.42
5062;BME280;2351;50.812;12.872;2023-03-16T09:56:10;98446.75;;;8.31;40.26
5062;BME280;2351;50.812;12.872;2023-03-16T09:58:42;98451.91;;;8.06;42.58
5062;BME280;2351;50.812;12.872;2023-03-16T10:01:21;98455.91;;;7.99;43.60
5062;BME280;2351;50.812;12.872;2023-03-16T10:04:03;98452.34;;;8.00;43.68
5062;BME280;2351;50.812;12.872;2023-03-16T10:06:44;98453.38;;;8.10;44.03
5062;BME280;2351;50.812;12.872;2023-03-16T10:09:27;98457.63;;;8.26;44.71
5062;BME280;2351;50.812;12.872;2023-03-16T10:12:05;98449.94;;;8.36;44.29
5062;BME280;2351;50.812;12.872;2023-03-16T10:14:40;98451.81;;;8.34;44.49
5062;BME280;2351;50.812;12.872;2023-03-16T10:17:18;98450.03;;;8.34;44.33
5062;BME280;2351;50.812;12.872;2023-03-16T10:19:53;98455.09;;;8.37;44.47
5062;BME280;2351;50.812;12.872;2023-03-16T10:22:30;98452.88;;;8.31;44.24
5062;BME280;2351;50.812;12.872;2023-03-16T10:25:07;98454.88;;;8.40;45.05
5062;BME280;2351;50.812;12.872;2023-03-16T10:27:43;98460.16;;;8.27;43.77
5062;BME280;2351;50.812;12.872;2023-03-16T10:30:23;98452.22;;;8.14;44.20
5062;BME280;2351;50.812;12.872;2023-03-16T10:33:00;98454.88;;;8.27;45.43
5062;BME280;2351;50.812;12.872;2023-03-16T10:35:40;98460.16;;;8.27;44.65
5062;BME280;2351;50.812;12.872;2023-03-16T10:38:30;98457.84;;;8.23;44.30
5062;BME280;2351;50.812;12.872;2023-03-16T10:41:13;98455.72;;;8.15;44.22
5062;BME280;2351;50.812;12.872;2023-03-16T10:43:51;98446.75;;;8.18;44.91
5062;BME280;2351;50.812;12.872;2023-03-16T10:46:27;98444.22;;;8.42;46.50
5062;BME280;2351;50.812;12.872;2023-03-16T10:48:59;98439.88;;;8.41;45.76
5062;BME280;2351;50.812;12.872;2023-03-16T10:51:32;98445.41;;;8.51;45.78
5062;BME280;2351;50.812;12.872;2023-03-16T10:54:07;98438.13;;;8.67;45.82
5062;BME280;2351;50.812;12.872;2023-03-16T10:56:44;98440.94;;;8.77;45.04
5062;BME280;2351;50.812;12.872;2023-03-16T10:59:27;98439.59;;;8.71;44.60
5062;BME280;2351;50.812;12.872;2023-03-16T11:02:07;98432.16;;;8.77;43.91
5062;BME280;2351;50.812;12.872;2023-03-16T11:04:42;98428.97;;;8.84;44.02
5062;BME280;2351;50.812;12.872;2023-03-16T11:07:18;98425.72;;;8.81;43.48
5062;BME280;2351;50.812;12.872;2023-03-16T11:09:50;98431.13;;;8.79;43.78
5062;BME280;2351;50.812;12.872;2023-03-16T11:12:26;98413.78;;;8.88;43.20
5062;BME280;2351;50.812;12.872;2023-03-16T11:15:00;98421.50;;;8.91;43.31
5062;BME280;2351;50.812;12.872;2023-03-16T11:17:35;98413.25;;;8.83;43.20
5062;BME280;2351;50.812;12.872;2023-03-16T11:20:13;98413.47;;;8.80;43.49
5062;BME280;2351;50.812;12.872;2023-03-16T11:22:47;98407.00;;;8.97;43.76
5062;BME280;2351;50.812;12.872;2023-03-16T11:25:25;98405.69;;;9.02;43.55
5062;BME280;2351;50.812;12.872;2023-03-16T11:28:06;98393.47;;;9.01;43.55
5062;BME280;2351;50.812;12.872;2023-03-16T11:30:45;98392.78;;;9.11;41.37
5062;BME280;2351;50.812;12.872;2023-03-16T11:33:20;98393.66;;;8.98;42.43
5062;BME280;2351;50.812;12.872;2023-03-16T11:35:58;98395.13;;;9.02;42.88
5062;BME280;2351;50.812;12.872;2023-03-16T11:38:34;98385.19;;;9.06;42.97
5062;BME280;2351;50.812;12.872;2023-03-16T11:41:09;98381.28;;;9.12;42.81
5062;BME280;2351;50.812;12.872;2023-03-16T11:43:50;98376.00;;;9.12;43.49
5062;BME280;2351;50.812;12.872;2023-03-16T11:46:24;98380.06;;;9.16;42.89
5062;BME280;2351;50.812;12.872;2023-03-16T11:49:14;98385.88;;;9.21;42.59
5062;BME280;2351;50.812;12.872;2023-03-16T11:51:58;98372.59;;;9.34;42.63
5062;BME280;2351;50.812;12.872;2023-03-16T11:54:49;98373.41;;;9.23;42.66
5062;BME280;2351;50.812;12.872;2023-03-16T11:57:30;98369.22;;;9.32;42.86
5062;BME280;2351;50.812;12.872;2023-03-16T12:00:17;98367.44;;;9.32;42.61
5062;BME280;2351;50.812;12.872;2023-03-16T12:06:05;98350.22;;;9.62;42.20
5062;BME280;2351;50.812;12.872;2023-03-16T12:08:56;98352.16;;;9.60;41.48
5062;BME280;2351;50.812;12.872;2023-03-16T12:11:38;98345.22;;;9.71;42.55
5062;BME280;2351;50.812;12.872;2023-03-16T12:14:16;98339.91;;;9.59;42.15
5062;BME280;2351;50.812;12.872;2023-03-16T12:16:56;98347.34;;;9.65;41.50
5062;BME280;2351;50.812;12.872;2023-03-16T12:19:38;98341.56;;;9.60;41.95
5062;BME280;2351;50.812;12.872;2023-03-16T12:22:16;98342.50;;;9.48;40.78
5062;BME280;2351;50.812;12.872;2023-03-16T12:24:50;98339.66;;;9.51;41.31
5062;BME280;2351;50.812;12.872;2023-03-16T12:27:25;98346.16;;;9.70;40.90
5062;BME280;2351;50.812;12.872;2023-03-16T12:30:06;98340.22;;;9.43;39.21
5062;BME280;2351;50.812;12.872;2023-03-16T12:32:54;98334.59;;;8.51;40.30
5062;BME280;2351;50.812;12.872;2023-03-16T12:35:37;98337.69;;;8.82;41.20
5062;BME280;2351;50.812;12.872;2023-03-16T12:41:16;98324.03;;;9.48;41.80
5062;BME280;2351;50.812;12.872;2023-03-16T12:44:12;98317.78;;;9.60;41.41
5062;BME280;2351;50.812;12.872;2023-03-16T12:46:51;98313.88;;;9.77;41.72
5062;BME280;2351;50.812;12.872;2023-03-16T12:49:32;98313.25;;;9.85;41.54
5062;BME280;2351;50.812;12.872;2023-03-16T12:52:07;98316.75;;;9.74;41.18
5062;BME280;2351;50.812;12.872;2023-03-16T12:54:48;98314.09;;;9.63;40.97
5062;BME280;2351;50.812;12.872;2023-03-16T12:57:23;98309.63;;;9.63;41.80
5062;BME280;2351;50.812;12.872;2023-03-16T12:59:58;98307.38;;;9.70;41.75
5062;BME280;2351;50.812;12.872;2023-03-16T13:02:34;98295.97;;;9.70;41.72
5062;BME280;2351;50.812;12.872;2023-03-16T13:05:10;98292.59;;;9.90;42.30
5062;BME280;2351;50.812;12.872;2023-03-16T13:07:46;98290.81;;;9.91;41.40
5062;BME280;2351;50.812;12.872;2023-03-16T13:10:19;98287.31;;;9.90;41.88
5062;BME280;2351;50.812;12.872;2023-03-16T13:12:51;98279.16;;;9.93;41.08
5062;BME280;2351;50.812;12.872;2023-03-16T13:15:27;98279.59;;;9.64;39.63
5062;BME280;2351;50.812;12.872;2023-03-16T13:18:21;98280.81;;;9.72;41.90
5062;BME280;2351;50.812;12.872;2023-03-16T13:20:57;98272.44;;;9.78;42.59
5062;BME280;2351;50.812;12.872;2023-03-16T13:23:52;98282.28;;;9.17;42.10
5062;BME280;2351;50.812;12.872;2023-03-16T13:26:37;98280.78;;;9.49;42.79
5062;BME280;2351;50.812;12.872;2023-03-16T13:29:19;98272.16;;;9.70;42.42
5062;BME280;2351;50.812;12.872;2023-03-16T13:31:54;98275.41;;;9.62;42.10
5062;BME280;2351;50.812;12.872;2023-03-16T13:34:29;98266.22;;;9.32;42.09
5062;BME280;2351;50.812;12.872;2023-03-16T13:37:03;98260.94;;;9.32;42.49
5062;BME280;2351;50.812;12.872;2023-03-16T13:39:34;98262.88;;;9.41;43.37
5062;BME280;2351;50.812;12.872;2023-03-16T13:42:15;98265.88;;;9.37;43.26
5062;BME280;2351;50.812;12.872;2023-03-16T13:44:51;98270.03;;;9.28;42.66
5062;BME280;2351;50.812;12.872;2023-03-16T13:47:24;98268.09;;;9.18;42.92
5062;BME280;2351;50.812;12.872;2023-03-16T13:49:58;98255.19;;;8.91;42.86
5062;BME280;2351;50.812;12.872;2023-03-16T13:52:33;98258.34;;;9.08;44.19
5062;BME280;2351;50.812;12.872;2023-03-16T13:55:13;98253.88;;;9.44;43.96